Time;durP1;ratioP1;P1;durP2;ratioP2;P2;SDS_P1;SDS_P2;PMS_P1;PMS_P2;Temp;Humidity;BMP_temperature;BMP_pressure;BME280_temperature;BME280_humidity;BME280_pressure;Samples;Min_cycle;Max_cycle;Signal;HPM_P1;HPM_P2
2024/01/17 00:01:20;;;;;;;3.30;1.20;;;-0.40;99.90;;;;;;4948671;28;20464;-67
2024/01/17 00:03:47;;;;;;;1.60;1.50;;;-0.50;99.90;;;;;;4948714;28;21045;-67
2024/01/17 00:06:14;;;;;;;5.20;2.50;;;-0.50;99.90;;;;;;4944323;28;20462;-69
2024/01/17 00:08:41;;;;;;;12.90;2.23;;;-0.50;99.90;;;;;;4947068;28;20834;-69
2024/01/17 00:11:07;;;;;;;1.63;1.00;;;-0.40;99.90;;;;;;4946654;28;20468;-68
2024/01/17 00:13:35;;;;;;;1.93;1.83;;;-0.30;99.90;;;;;;4947913;28;20423;-69
2024/01/17 00:16:03;;;;;;;2.53;2.33;;;-0.40;99.90;;;;;;4946684;28;20952;-68
2024/01/17 00:18:30;;;;;;;2.73;2.37;;;-0.60;99.90;;;;;;4945754;28;20468;-68
2024/01/17 00:20:57;;;;;;;3.53;2.37;;;-0.70;99.90;;;;;;4947392;28;20464;-69
2024/01/17 00:23:24;;;;;;;2.40;2.20;;;-0.70;99.90;;;;;;4941614;28;20422;-69
2024/01/17 00:25:51;;;;;;;2.00;1.80;;;-0.80;99.90;;;;;;4946772;28;20942;-68
2024/01/17 00:28:17;;;;;;;4.67;2.90;;;-0.80;99.90;;;;;;4944931;28;21351;-68
2024/01/17 00:30:47;;;;;;;5.20;3.37;;;-0.80;99.90;;;;;;4945836;28;20472;-68
2024/01/17 00:33:15;;;;;;;3.73;3.43;;;-0.80;99.90;;;;;;4945008;28;20519;-69
2024/01/17 00:35:42;;;;;;;2.57;2.17;;;-0.70;99.90;;;;;;4944637;28;20951;-68
2024/01/17 00:38:09;;;;;;;1.83;1.73;;;-0.80;99.90;;;;;;4948651;28;20782;-68
2024/01/17 00:40:36;;;;;;;3.73;2.30;;;-0.80;99.90;;;;;;4947667;28;20844;-68
2024/01/17 00:43:03;;;;;;;3.13;2.10;;;-0.80;99.90;;;;;;4947916;28;20453;-68
2024/01/17 00:45:30;;;;;;;4.87;3.47;;;-0.80;99.90;;;;;;4937207;28;20479;-67
2024/01/17 00:47:56;;;;;;;2.73;2.43;;;-0.70;99.90;;;;;;4940964;28;20450;-68
2024/01/17 00:50:25;;;;;;;2.03;1.93;;;-0.80;99.90;;;;;;4947780;28;20452;-68
2024/01/17 00:52:51;;;;;;;2.73;2.53;;;-0.90;99.90;;;;;;4945380;28;20816;-67
2024/01/17 00:55:18;;;;;;;2.03;1.93;;;-0.80;99.90;;;;;;4944801;28;20822;-67
2024/01/17 00:57:45;;;;;;;12.20;3.90;;;-0.80;99.90;;;;;;4953244;28;20465;-67
2024/01/17 01:00:12;;;;;;;2.93;1.43;;;-0.60;99.90;;;;;;4944722;28;20447;-68
2024/01/17 01:02:39;;;;;;;2.80;1.93;;;-0.70;99.90;;;;;;4942234;28;20427;-67
2024/01/17 01:05:06;;;;;;;2.50;2.30;;;-0.70;99.90;;;;;;4947110;28;20521;-67
2024/01/17 01:07:36;;;;;;;1.63;1.50;;;-0.80;99.90;;;;;;4946349;28;20435;-68
2024/01/17 01:10:02;;;;;;;2.00;1.80;;;-0.80;99.90;;;;;;4938236;28;20467;-68
2024/01/17 01:12:29;;;;;;;1.80;1.70;;;-0.70;99.90;;;;;;4945439;28;20471;-68
2024/01/17 01:14:56;;;;;;;3.30;3.00;;;-0.80;99.90;;;;;;4946923;28;20466;-68
2024/01/17 01:17:22;;;;;;;2.23;1.63;;;-0.80;99.90;;;;;;4935840;28;20494;-67
2024/01/17 01:19:49;;;;;;;4.70;2.40;;;-1.00;99.90;;;;;;4945657;28;20467;-67
2024/01/17 01:22:16;;;;;;;4.80;3.40;;;-0.90;99.90;;;;;;4944504;28;20472;-68
2024/01/17 01:24:44;;;;;;;3.07;2.13;;;-0.80;99.90;;;;;;4947178;28;20458;-68
2024/01/17 01:27:11;;;;;;;2.13;1.30;;;-0.90;99.90;;;;;;4944428;28;20477;-68
2024/01/17 01:29:38;;;;;;;1.87;1.77;;;-0.90;99.90;;;;;;4931985;28;20431;-67
2024/01/17 01:32:04;;;;;;;1.93;1.83;;;-0.80;99.90;;;;;;4940990;28;20445;-68
2024/01/17 01:34:31;;;;;;;5.27;2.73;;;-0.70;99.90;;;;;;4942624;28;20459;-69
2024/01/17 01:37:01;;;;;;;4.33;1.70;;;-0.60;99.90;;;;;;4943095;28;20495;-68
2024/01/17 01:39:28;;;;;;;3.67;3.00;;;-0.60;99.90;;;;;;4944964;28;20431;-67
2024/01/17 01:41:57;;;;;;;2.47;1.90;;;-0.70;99.90;;;;;;4945629;28;20453;-69
2024/01/17 01:44:24;;;;;;;2.70;2.10;;;-0.80;99.90;;;;;;4935218;28;20491;-67
2024/01/17 01:46:51;;;;;;;1.33;1.23;;;-0.90;99.90;;;;;;4947344;28;20949;-68
2024/01/17 01:49:18;;;;;;;5.30;2.60;;;-0.90;99.90;;;;;;4944042;28;20806;-68
2024/01/17 01:51:47;;;;;;;2.93;1.97;;;-1.10;99.90;;;;;;4947227;28;20531;-68
2024/01/17 01:54:17;;;;;;;6.00;2.67;;;-1.10;99.90;;;;;;4940552;28;20465;-68
2024/01/17 01:56:44;;;;;;;3.17;2.10;;;-1.00;99.90;;;;;;4942926;28;20519;-69
2024/01/17 01:59:12;;;;;;;2.80;2.17;;;-1.00;99.90;;;;;;4934250;28;20479;-68
2024/01/17 02:01:40;;;;;;;3.20;2.83;;;-1.00;99.90;;;;;;4944946;28;20950;-68
2024/01/17 02:04:06;;;;;;;4.00;2.57;;;-1.00;99.90;;;;;;4941919;28;20460;-68
2024/01/17 02:06:36;;;;;;;2.70;1.30;;;-1.10;99.90;;;;;;4943116;28;20574;-69
2024/01/17 02:09:03;;;;;;;4.77;2.33;;;-1.20;99.90;;;;;;4946942;28;20525;-68
2024/01/17 02:11:31;;;;;;;2.03;1.33;;;-1.20;99.90;;;;;;4945316;28;20475;-68
2024/01/17 02:13:58;;;;;;;2.17;1.97;;;-1.20;99.90;;;;;;4941784;28;21267;-68
2024/01/17 02:16:27;;;;;;;2.80;2.03;;;-1.10;99.90;;;;;;4944690;28;20458;-68
2024/01/17 02:18:54;;;;;;;1.43;1.13;;;-1.00;99.90;;;;;;4931480;28;20443;-68
2024/01/17 02:21:22;;;;;;;0.90;0.80;;;-1.10;99.90;;;;;;4941146;28;20471;-68
2024/01/17 02:23:51;;;;;;;2.40;1.60;;;-1.10;99.90;;;;;;4942519;28;20545;-68
2024/01/17 02:26:18;;;;;;;1.77;1.53;;;-1.10;99.90;;;;;;4940167;28;20964;-68
2024/01/17 02:28:45;;;;;;;2.57;2.37;;;-1.10;99.90;;;;;;4941047;28;20465;-68
2024/01/17 02:31:12;;;;;;;1.23;1.00;;;-1.10;99.90;;;;;;4940244;28;21206;-67
2024/01/17 02:33:40;;;;;;;0.90;0.80;;;-1.00;99.90;;;;;;4944820;28;20850;-68
2024/01/17 02:36:07;;;;;;;2.70;2.30;;;-0.90;99.90;;;;;;4942844;28;20578;-67
2024/01/17 02:38:34;;;;;;;4.10;2.50;;;-1.00;99.90;;;;;;4937912;28;20923;-67
2024/01/17 02:41:02;;;;;;;8.43;3.10;;;-1.10;99.90;;;;;;4940465;28;20463;-68
2024/01/17 02:43:29;;;;;;;1.87;1.40;;;-1.00;99.90;;;;;;4939069;28;20439;-68
2024/01/17 02:45:56;;;;;;;2.40;2.20;;;-1.10;99.90;;;;;;4927242;28;20977;-67
2024/01/17 02:48:23;;;;;;;1.00;0.90;;;-1.10;99.90;;;;;;4937528;28;20462;-68
2024/01/17 02:50:50;;;;;;;6.50;2.30;;;-1.20;99.90;;;;;;4942252;28;21020;-68
2024/01/17 02:53:17;;;;;;;1.97;1.57;;;-1.10;99.90;;;;;;4937087;28;20446;-68
2024/01/17 02:55:44;;;;;;;6.27;3.57;;;-1.10;99.90;;;;;;4939140;28;20474;-67
2024/01/17 02:58:12;;;;;;;2.80;2.60;;;-1.00;99.90;;;;;;4935284;28;20821;-67
2024/01/17 03:00:42;;;;;;;1.93;1.10;;;-1.00;99.90;;;;;;4931414;28;20468;-68
2024/01/17 03:03:09;;;;;;;1.67;1.57;;;-1.10;99.90;;;;;;4935836;28;20469;-68
2024/01/17 03:05:39;;;;;;;4.07;2.17;;;-1.00;99.90;;;;;;4940229;28;20471;-68
2024/01/17 03:08:06;;;;;;;4.07;2.97;;;-1.00;99.90;;;;;;4944532;28;20519;-68
2024/01/17 03:10:33;;;;;;;2.60;2.50;;;-1.00;99.90;;;;;;4943579;28;20463;-68
2024/01/17 03:13:00;;;;;;;5.63;2.80;;;-1.00;99.90;;;;;;4944264;28;20446;-67
2024/01/17 03:15:28;;;;;;;1.67;1.57;;;-0.90;99.90;;;;;;4945090;28;20899;-67
2024/01/17 03:17:55;;;;;;;3.20;3.00;;;-0.90;99.90;;;;;;4943464;28;20462;-67
2024/01/17 03:20:22;;;;;;;3.93;2.10;;;-0.80;99.90;;;;;;4947832;28;20933;-68
2024/01/17 03:22:49;;;;;;;0.90;0.70;;;-0.80;99.90;;;;;;4941718;28;20796;-68
2024/01/17 03:25:16;;;;;;;6.73;4.87;;;-0.90;99.90;;;;;;4947732;28;20461;-69
2024/01/17 03:27:43;;;;;;;2.50;1.40;;;-0.90;99.90;;;;;;4943791;28;20443;-68
2024/01/17 03:30:11;;;;;;;5.33;4.20;;;-0.80;99.90;;;;;;4941571;28;20455;-68
2024/01/17 03:32:39;;;;;;;3.87;2.17;;;-0.80;99.90;;;;;;4943146;28;20446;-68
2024/01/17 03:35:06;;;;;;;2.60;2.40;;;-0.90;99.90;;;;;;4952706;28;20453;-68
2024/01/17 03:37:33;;;;;;;1.73;1.63;;;-0.90;99.90;;;;;;4946827;28;20823;-68
2024/01/17 03:40:00;;;;;;;3.93;1.57;;;-0.80;99.90;;;;;;4943089;28;20447;-69
2024/01/17 03:42:26;;;;;;;1.00;0.90;;;-0.80;99.90;;;;;;4943388;28;20443;-69
2024/01/17 03:44:53;;;;;;;4.80;2.10;;;-0.80;99.90;;;;;;4942809;28;20463;-67
2024/01/17 03:47:23;;;;;;;2.07;1.87;;;-0.80;99.90;;;;;;4945470;28;20833;-67
2024/01/17 03:49:51;;;;;;;1.60;0.83;;;-0.90;99.90;;;;;;4944256;28;20430;-67
2024/01/17 03:52:18;;;;;;;1.73;1.63;;;-0.90;99.90;;;;;;4945581;28;20445;-68
2024/01/17 03:54:44;;;;;;;3.80;3.50;;;-1.00;99.90;;;;;;4946028;28;20475;-69
2024/01/17 03:57:11;;;;;;;1.80;1.70;;;-1.00;99.90;;;;;;4943027;28;20634;-68
2024/01/17 03:59:38;;;;;;;4.33;2.10;;;-1.10;99.90;;;;;;4944140;28;20438;-69
2024/01/17 04:02:05;;;;;;;6.30;2.63;;;-1.10;99.90;;;;;;4948340;28;20511;-69
2024/01/17 04:04:32;;;;;;;4.40;3.67;;;-1.20;99.90;;;;;;4947557;28;20573;-68
2024/01/17 04:07:00;;;;;;;2.10;1.70;;;-1.20;99.90;;;;;;4946418;28;20452;-68
2024/01/17 04:09:26;;;;;;;1.10;1.00;;;-1.20;99.90;;;;;;4944744;28;20456;-68
2024/01/17 04:11:53;;;;;;;2.80;2.57;;;-1.30;99.90;;;;;;4945020;28;20464;-67
2024/01/17 04:14:20;;;;;;;4.17;2.47;;;-1.30;99.90;;;;;;4948414;28;20453;-67
2024/01/17 04:16:46;;;;;;;2.20;1.43;;;-1.40;99.90;;;;;;4948498;28;20455;-67
2024/01/17 04:19:13;;;;;;;11.90;3.60;;;-1.30;99.90;;;;;;4943351;28;20527;-68
2024/01/17 04:21:40;;;;;;;1.87;1.77;;;-1.30;99.90;;;;;;4945587;28;20435;-67
2024/01/17 04:24:08;;;;;;;9.73;2.40;;;-1.30;99.90;;;;;;4947421;28;20941;-68
2024/01/17 04:26:35;;;;;;;9.30;2.77;;;-1.20;99.90;;;;;;4948061;28;20452;-68
2024/01/17 04:29:02;;;;;;;6.50;5.33;;;-1.20;99.90;;;;;;4949562;28;20463;-68
2024/01/17 04:31:30;;;;;;;5.87;3.00;;;-1.40;99.90;;;;;;4945309;28;20446;-68
2024/01/17 04:33:58;;;;;;;3.13;2.93;;;-1.40;99.90;;;;;;4942859;28;20439;-67
2024/01/17 04:36:49;;;;;;;2.23;1.30;;;-1.40;99.90;;;;;;4947710;28;20494;-67
2024/01/17 04:39:17;;;;;;;5.70;3.40;;;-1.30;99.90;;;;;;4945980;28;20830;-67
2024/01/17 04:41:44;;;;;;;7.47;2.50;;;-1.20;99.90;;;;;;4948203;28;21242;-67
2024/01/17 04:44:11;;;;;;;2.50;2.30;;;-1.00;99.90;;;;;;4947039;28;20488;-67
2024/01/17 04:46:38;;;;;;;2.80;2.47;;;-1.10;99.90;;;;;;4943604;28;20433;-68
2024/01/17 04:49:06;;;;;;;4.50;2.50;;;-1.00;99.90;;;;;;4946309;28;20484;-68
2024/01/17 04:51:32;;;;;;;2.50;2.20;;;-0.90;99.90;;;;;;4945556;28;20546;-69
2024/01/17 04:53:59;;;;;;;4.93;2.83;;;-0.80;99.90;;;;;;4943575;28;20449;-68
2024/01/17 04:56:27;;;;;;;10.93;5.60;;;-0.80;99.90;;;;;;4942913;28;20861;-67
2024/01/17 04:58:54;;;;;;;2.37;1.97;;;-0.80;99.90;;;;;;4943392;28;20446;-67
2024/01/17 05:01:21;;;;;;;3.60;2.50;;;-0.80;99.90;;;;;;4943599;28;20853;-68
2024/01/17 05:03:48;;;;;;;4.97;1.73;;;-0.80;99.90;;;;;;4944195;28;20458;-68
2024/01/17 05:06:15;;;;;;;8.63;2.20;;;-0.80;99.90;;;;;;4947398;28;20450;-69
2024/01/17 05:08:41;;;;;;;5.33;4.40;;;-0.80;99.90;;;;;;4947816;28;20423;-68
2024/01/17 05:11:08;;;;;;;4.77;2.73;;;-0.80;99.90;;;;;;4945301;28;20434;-67
2024/01/17 05:13:38;;;;;;;4.10;3.90;;;-0.70;99.90;;;;;;4947610;28;20429;-68
2024/01/17 05:16:05;;;;;;;2.07;1.97;;;-0.70;99.90;;;;;;4949731;28;20445;-68
2024/01/17 05:18:31;;;;;;;2.60;2.07;;;-0.80;99.90;;;;;;4949048;28;20439;-67
2024/01/17 05:20:58;;;;;;;4.70;1.93;;;-0.80;99.90;;;;;;4951563;28;20877;-68
2024/01/17 05:23:25;;;;;;;3.30;2.63;;;-0.80;99.90;;;;;;4946782;28;20453;-68
2024/01/17 05:25:52;;;;;;;6.77;6.20;;;-0.80;99.90;;;;;;4951479;28;20795;-68
2024/01/17 05:28:18;;;;;;;9.83;2.70;;;-0.80;99.90;;;;;;4951523;28;20479;-68
2024/01/17 05:30:46;;;;;;;4.83;2.90;;;-0.70;99.90;;;;;;4949107;28;20453;-68
2024/01/17 05:33:13;;;;;;;5.03;2.67;;;-0.80;99.90;;;;;;4950795;28;20452;-68
2024/01/17 05:35:40;;;;;;;5.00;3.20;;;-0.80;99.90;;;;;;4946632;28;20479;-67
2024/01/17 05:38:07;;;;;;;5.03;4.53;;;-0.90;99.90;;;;;;4945925;28;20510;-67
2024/01/17 05:40:34;;;;;;;7.23;3.87;;;-1.00;99.90;;;;;;4946772;28;20495;-68
2024/01/17 05:43:01;;;;;;;3.53;2.40;;;-1.00;99.90;;;;;;4947288;28;20479;-67
2024/01/17 05:45:27;;;;;;;2.03;1.93;;;-1.00;99.90;;;;;;4947080;28;20470;-68
2024/01/17 05:47:55;;;;;;;4.20;3.53;;;-1.10;99.90;;;;;;4946948;28;21009;-67
2024/01/17 05:50:22;;;;;;;3.33;2.40;;;-1.10;99.90;;;;;;4948415;28;20431;-67
2024/01/17 05:52:49;;;;;;;6.37;2.37;;;-1.10;99.90;;;;;;4948443;28;20463;-67
2024/01/17 05:55:17;;;;;;;2.63;2.43;;;-1.00;99.90;;;;;;4950646;28;23167;-68
2024/01/17 05:57:44;;;;;;;5.23;4.77;;;-0.90;99.90;;;;;;4951719;28;20474;-67
2024/01/17 06:00:12;;;;;;;1.80;1.60;;;-0.80;99.90;;;;;;4950798;28;20456;-67
2024/01/17 06:02:39;;;;;;;2.17;1.97;;;-0.70;99.90;;;;;;4952437;28;20460;-67
2024/01/17 06:05:09;;;;;;;7.93;2.97;;;-0.80;99.90;;;;;;4950116;28;20488;-67
2024/01/17 06:07:36;;;;;;;4.17;2.17;;;-0.90;99.90;;;;;;4947884;28;20815;-67
2024/01/17 06:10:03;;;;;;;3.50;3.20;;;-0.80;99.90;;;;;;4953960;28;20506;-68
2024/01/17 06:12:29;;;;;;;6.00;2.97;;;-0.80;99.90;;;;;;4951413;28;20514;-68
2024/01/17 06:14:56;;;;;;;3.67;2.47;;;-0.90;99.90;;;;;;4951529;28;20468;-67
2024/01/17 06:17:23;;;;;;;2.73;2.53;;;-0.90;99.90;;;;;;4950308;28;21039;-68
2024/01/17 06:19:49;;;;;;;9.00;4.30;;;-0.90;99.90;;;;;;4948105;28;20513;-67
2024/01/17 06:22:18;;;;;;;3.63;2.40;;;-1.00;99.90;;;;;;4950800;28;20463;-68
2024/01/17 06:24:45;;;;;;;23.77;3.07;;;-1.00;99.90;;;;;;4947613;28;20547;-68
2024/01/17 06:27:12;;;;;;;14.03;4.53;;;-1.00;99.90;;;;;;4950538;28;20464;-68
2024/01/17 06:29:41;;;;;;;3.30;2.93;;;-1.00;99.90;;;;;;4946391;28;20442;-68
2024/01/17 06:32:08;;;;;;;4.80;2.27;;;-0.90;99.90;;;;;;4948562;28;20442;-68
2024/01/17 06:34:35;;;;;;;3.77;2.80;;;-1.00;99.90;;;;;;4952249;28;20559;-68
2024/01/17 06:37:02;;;;;;;4.43;1.93;;;-0.90;99.90;;;;;;4952989;28;20510;-68
2024/01/17 06:39:30;;;;;;;4.67;3.97;;;-0.90;99.90;;;;;;4950660;28;20558;-68
2024/01/17 06:41:57;;;;;;;4.00;3.23;;;-0.90;99.90;;;;;;4949680;28;20456;-68
2024/01/17 06:44:24;;;;;;;2.37;2.17;;;-0.90;99.90;;;;;;4950289;28;21312;-68
2024/01/17 06:46:51;;;;;;;2.67;2.47;;;-0.70;99.90;;;;;;4941943;28;20522;-68
2024/01/17 06:49:17;;;;;;;2.87;2.47;;;-0.70;99.90;;;;;;4948561;28;20470;-68
2024/01/17 06:51:45;;;;;;;6.37;3.80;;;-0.70;99.90;;;;;;4953087;28;20431;-68
2024/01/17 06:54:12;;;;;;;6.50;3.43;;;-0.70;99.90;;;;;;4955174;28;20476;-68
2024/01/17 06:56:40;;;;;;;4.43;3.67;;;-0.70;99.90;;;;;;4950947;28;20460;-68
2024/01/17 06:59:07;;;;;;;3.40;3.10;;;-0.70;99.90;;;;;;4950460;28;20905;-67
2024/01/17 07:01:35;;;;;;;4.83;2.60;;;-0.80;99.90;;;;;;4951979;28;20463;-68
2024/01/17 07:04:01;;;;;;;4.70;3.57;;;-0.80;99.90;;;;;;4956108;28;20968;-68
2024/01/17 07:06:28;;;;;;;5.20;2.50;;;-0.80;99.90;;;;;;4950681;28;20823;-68
2024/01/17 07:08:55;;;;;;;6.30;2.60;;;-0.90;99.90;;;;;;4950194;28;20462;-69
2024/01/17 07:11:22;;;;;;;6.37;4.53;;;-0.80;99.90;;;;;;4949779;28;20440;-68
2024/01/17 07:13:50;;;;;;;3.83;3.57;;;-0.80;99.90;;;;;;4950872;28;20443;-68
2024/01/17 07:16:17;;;;;;;10.43;3.77;;;-0.80;99.90;;;;;;4945009;28;20460;-68
2024/01/17 07:18:44;;;;;;;9.70;5.90;;;-0.80;99.90;;;;;;4949896;28;20522;-68
2024/01/17 07:21:11;;;;;;;13.73;4.80;;;-0.80;99.90;;;;;;4950266;28;20443;-68
2024/01/17 07:23:39;;;;;;;6.00;4.60;;;-0.80;99.90;;;;;;4948184;28;20434;-68
2024/01/17 07:26:06;;;;;;;4.20;3.80;;;-0.80;99.90;;;;;;4948439;28;20447;-68
2024/01/17 07:28:33;;;;;;;4.13;3.00;;;-0.80;99.90;;;;;;4947073;28;20439;-68
2024/01/17 07:31:01;;;;;;;4.30;2.30;;;-0.80;99.90;;;;;;4953679;28;20651;-69
2024/01/17 07:33:28;;;;;;;2.23;2.13;;;-0.70;99.90;;;;;;4951613;28;20795;-68
2024/01/17 07:35:54;;;;;;;3.73;2.43;;;-0.70;99.90;;;;;;5141474;23;20511;-67
2024/01/17 07:38:21;;;;;;;7.73;6.10;;;-0.70;99.90;;;;;;5003300;28;20492;-66
2024/01/17 07:40:49;;;;;;;4.50;2.43;;;-0.70;99.90;;;;;;5001897;28;20513;-67
2024/01/17 07:43:16;;;;;;;4.90;3.77;;;-0.70;99.90;;;;;;5000630;28;20458;-65
2024/01/17 07:45:43;;;;;;;8.93;2.87;;;-0.70;99.90;;;;;;4988609;28;20589;-67
2024/01/17 07:48:12;;;;;;;5.60;3.37;;;-0.60;99.90;;;;;;4986747;28;20916;-66
2024/01/17 07:50:39;;;;;;;3.17;2.90;;;-0.60;99.90;;;;;;4988473;28;20443;-66
2024/01/17 07:53:07;;;;;;;12.03;4.23;;;-0.60;99.90;;;;;;4985362;28;20466;-65
2024/01/17 07:55:34;;;;;;;3.60;3.30;;;-0.50;99.90;;;;;;4983452;28;20480;-66
2024/01/17 07:58:01;;;;;;;7.17;2.97;;;-0.50;99.90;;;;;;4974383;28;20496;-65
2024/01/17 08:00:28;;;;;;;5.63;5.07;;;-0.60;99.90;;;;;;4986986;28;21035;-66
2024/01/17 08:02:55;;;;;;;18.63;4.03;;;-0.50;99.90;;;;;;4982486;28;20441;-66
2024/01/17 08:05:23;;;;;;;6.07;4.53;;;-0.50;99.90;;;;;;4979848;28;20459;-66
2024/01/17 08:07:50;;;;;;;8.13;2.80;;;-0.50;99.90;;;;;;4983418;28;20895;-66
2024/01/17 08:10:17;;;;;;;11.07;4.03;;;-0.50;99.90;;;;;;4981498;28;20465;-66
2024/01/17 08:12:44;;;;;;;4.77;4.03;;;-0.50;99.90;;;;;;4982992;28;20463;-66
2024/01/17 08:15:11;;;;;;;7.70;3.90;;;-0.50;99.90;;;;;;4984743;28;20449;-66
2024/01/17 08:17:38;;;;;;;4.90;4.50;;;-0.40;99.90;;;;;;4986414;28;20493;-66
2024/01/17 08:20:07;;;;;;;8.30;4.30;;;-0.50;99.90;;;;;;4981070;28;20470;-66
2024/01/17 08:22:35;;;;;;;7.00;2.30;;;-0.40;99.90;;;;;;4973528;28;20474;-65
2024/01/17 08:25:02;;;;;;;10.90;4.00;;;-0.30;99.90;;;;;;4980892;28;20481;-65
2024/01/17 08:27:29;;;;;;;5.87;4.77;;;-0.30;99.90;;;;;;4983207;28;20428;-65
2024/01/17 08:29:56;;;;;;;9.60;5.43;;;-0.30;99.90;;;;;;4978930;28;20470;-66
2024/01/17 08:32:22;;;;;;;6.73;6.10;;;-0.30;99.90;;;;;;4985383;28;20432;-66
2024/01/17 08:34:49;;;;;;;9.83;5.27;;;-0.20;99.90;;;;;;4975004;28;20438;-66
2024/01/17 08:37:16;;;;;;;14.37;4.73;;;-0.10;99.90;;;;;;4981995;28;20478;-67
2024/01/17 08:39:44;;;;;;;6.80;4.77;;;0.00;99.90;;;;;;4980646;28;20440;-67
2024/01/17 08:42:11;;;;;;;9.77;5.40;;;-0.10;99.90;;;;;;4987439;28;20963;-67
2024/01/17 08:44:38;;;;;;;15.40;3.80;;;0.00;99.90;;;;;;4987285;28;20465;-66
2024/01/17 08:47:06;;;;;;;4.30;3.57;;;0.10;99.90;;;;;;4986793;28;20429;-66
2024/01/17 08:49:33;;;;;;;37.23;7.47;;;0.20;99.90;;;;;;4989387;28;21247;-66
2024/01/17 08:52:00;;;;;;;11.90;5.20;;;0.10;99.90;;;;;;4987579;28;20657;-67
2024/01/17 08:54:27;;;;;;;14.03;5.70;;;0.20;99.90;;;;;;4974164;28;21061;-66
2024/01/17 08:56:55;;;;;;;8.80;4.77;;;0.20;99.90;;;;;;4989234;28;20889;-67
2024/01/17 08:59:22;;;;;;;6.57;4.20;;;0.30;99.90;;;;;;4989626;28;21025;-66
2024/01/17 09:01:52;;;;;;;5.80;4.43;;;0.40;99.90;;;;;;4988906;28;20436;-66
2024/01/17 09:04:19;;;;;;;6.27;4.33;;;0.40;99.90;;;;;;4987592;28;20475;-66
2024/01/17 09:06:46;;;;;;;4.77;3.07;;;0.40;99.90;;;;;;4990138;28;20436;-66
2024/01/17 09:09:12;;;;;;;6.10;5.47;;;0.40;99.90;;;;;;4987590;28;20867;-66
2024/01/17 09:11:39;;;;;;;4.77;3.40;;;0.50;99.90;;;;;;4992009;28;20751;-66
2024/01/17 09:14:10;;;;;;;7.13;5.00;;;0.70;99.90;;;;;;4988360;28;20496;-66
2024/01/17 09:16:36;;;;;;;9.97;5.10;;;0.80;99.90;;;;;;4991944;28;20440;-66
2024/01/17 09:19:03;;;;;;;14.20;4.87;;;1.00;99.90;;;;;;4975448;28;20487;-67
2024/01/17 09:21:31;;;;;;;21.77;5.23;;;0.90;99.90;;;;;;4986887;28;20622;-66
2024/01/17 09:23:58;;;;;;;6.97;4.93;;;1.00;99.90;;;;;;4987918;28;20458;-66
2024/01/17 09:26:25;;;;;;;16.20;5.40;;;1.00;99.90;;;;;;4987199;28;20436;-66
2024/01/17 09:28:52;;;;;;;15.60;5.20;;;1.10;99.90;;;;;;4989490;28;20405;-66
2024/01/17 09:31:20;;;;;;;4.77;3.83;;;1.30;99.90;;;;;;4990224;28;20449;-67
2024/01/17 09:33:47;;;;;;;11.60;5.13;;;1.50;99.90;;;;;;4990547;28;20808;-67
2024/01/17 09:36:13;;;;;;;6.10;3.67;;;1.50;99.90;;;;;;4988300;28;20461;-65
2024/01/17 09:38:40;;;;;;;8.70;3.80;;;1.60;99.90;;;;;;4987775;28;20468;-66
2024/01/17 09:41:08;;;;;;;4.50;4.10;;;1.70;99.90;;;;;;4986658;28;20429;-66
2024/01/17 09:43:35;;;;;;;11.53;6.03;;;1.80;99.90;;;;;;4988525;28;20449;-66
2024/01/17 09:46:04;;;;;;;12.97;7.00;;;2.00;99.90;;;;;;4987949;28;20485;-66
2024/01/17 09:48:32;;;;;;;7.07;4.60;;;2.10;99.90;;;;;;4986134;28;20421;-65
2024/01/17 09:51:00;;;;;;;10.00;5.43;;;2.20;99.90;;;;;;4977363;28;20553;-66
2024/01/17 09:53:30;;;;;;;5.57;4.10;;;2.30;99.90;;;;;;4981063;28;20455;-65
2024/01/17 09:55:59;;;;;;;3.93;2.57;;;2.30;99.90;;;;;;4984096;28;20445;-65
2024/01/17 09:58:28;;;;;;;8.27;4.53;;;2.20;99.90;;;;;;4986108;28;20456;-65
2024/01/17 10:00:56;;;;;;;7.93;4.90;;;2.20;99.90;;;;;;4989314;28;20457;-67
2024/01/17 10:03:25;;;;;;;6.07;4.17;;;2.30;99.90;;;;;;4989465;28;20828;-66
2024/01/17 10:05:55;;;;;;;9.67;7.00;;;2.30;99.90;;;;;;4984201;28;20479;-66
2024/01/17 10:08:22;;;;;;;23.30;4.50;;;2.20;99.90;;;;;;4984783;28;20487;-66
2024/01/17 10:10:49;;;;;;;7.50;3.23;;;2.20;99.90;;;;;;4983501;28;20528;-66
2024/01/17 10:13:16;;;;;;;13.03;4.27;;;2.10;99.90;;;;;;4980481;28;20473;-68
2024/01/17 10:15:43;;;;;;;5.83;3.07;;;2.00;99.90;;;;;;4984146;28;20534;-66
2024/01/17 10:18:11;;;;;;;4.67;3.90;;;1.90;99.90;;;;;;4974440;28;20532;-66
2024/01/17 10:20:38;;;;;;;2.90;2.60;;;2.00;99.90;;;;;;4987270;28;20536;-66
2024/01/17 10:23:07;;;;;;;9.30;4.67;;;2.10;99.90;;;;;;4982645;28;20917;-66
2024/01/17 10:25:38;;;;;;;8.73;3.80;;;2.00;99.90;;;;;;4984349;28;20481;-66
2024/01/17 10:28:06;;;;;;;7.80;3.50;;;1.70;99.90;;;;;;4982693;28;20418;-66
2024/01/17 10:30:33;;;;;;;5.73;4.73;;;1.60;99.90;;;;;;4980824;28;21321;-66
2024/01/17 10:33:03;;;;;;;5.90;4.30;;;1.70;99.90;;;;;;4983336;28;20473;-66
2024/01/17 10:35:30;;;;;;;10.50;5.67;;;1.60;99.90;;;;;;4987253;28;20556;-67
2024/01/17 10:37:57;;;;;;;9.63;5.83;;;1.50;99.90;;;;;;4984482;28;20520;-67
2024/01/17 10:40:26;;;;;;;8.83;4.17;;;1.70;99.90;;;;;;4985036;28;20459;-67
2024/01/17 10:43:09;;;;;;;14.30;5.40;;;1.80;99.90;;;;;;4983855;28;20486;-67
2024/01/17 10:45:37;;;;;;;3.13;2.80;;;1.80;99.90;;;;;;4982239;28;20473;-67
2024/01/17 10:48:04;;;;;;;10.60;4.73;;;1.80;99.90;;;;;;4982359;28;20454;-67
2024/01/17 10:50:31;;;;;;;7.57;5.17;;;1.90;99.90;;;;;;4985029;28;20421;-67
2024/01/17 10:53:02;;;;;;;4.77;4.27;;;1.90;99.90;;;;;;4986998;28;20447;-67
2024/01/17 10:55:33;;;;;;;9.50;4.60;;;2.00;99.90;;;;;;4988126;28;20482;-67
2024/01/17 10:58:01;;;;;;;12.10;3.97;;;2.20;99.90;;;;;;4976660;28;20463;-67
2024/01/17 11:00:31;;;;;;;11.50;4.90;;;2.30;99.90;;;;;;4984040;28;20473;-67
2024/01/17 11:02:59;;;;;;;5.60;3.43;;;2.10;99.90;;;;;;4988811;28;20873;-67
2024/01/17 11:05:29;;;;;;;5.73;3.00;;;2.20;99.90;;;;;;4983739;28;20815;-68
2024/01/17 11:07:59;;;;;;;6.33;4.73;;;2.20;99.90;;;;;;4990233;28;20454;-67
2024/01/17 11:10:29;;;;;;;12.17;5.40;;;2.20;99.90;;;;;;4983854;28;20440;-66
2024/01/17 11:12:57;;;;;;;5.60;3.40;;;2.40;99.90;;;;;;4986259;28;20470;-66
2024/01/17 11:15:26;;;;;;;3.73;2.50;;;2.40;99.90;;;;;;4980039;28;20566;-66
2024/01/17 11:17:56;;;;;;;11.33;6.40;;;2.50;99.90;;;;;;4982970;28;20466;-66
2024/01/17 11:20:23;;;;;;;3.03;2.80;;;2.50;99.90;;;;;;4981551;28;20428;-67
2024/01/17 11:22:51;;;;;;;5.03;2.13;;;2.60;99.90;;;;;;4987621;28;20486;-67
2024/01/17 11:25:24;;;;;;;5.73;3.10;;;2.50;99.90;;;;;;4980215;28;20460;-67
2024/01/17 11:28:05;;;;;;;2.90;2.30;;;2.60;99.90;;;;;;4977870;28;20445;-67
2024/01/17 11:30:59;;;;;;;8.17;3.97;;;2.60;99.90;;;;;;4984202;28;20433;-67
2024/01/17 11:33:27;;;;;;;6.20;3.87;;;2.60;99.90;;;;;;4979923;28;20427;-67
2024/01/17 11:35:54;;;;;;;5.67;3.70;;;2.60;99.90;;;;;;4981507;28;20465;-66
2024/01/17 11:38:32;;;;;;;5.20;4.23;;;2.60;99.90;;;;;;4992291;28;20456;-67
2024/01/17 11:41:01;;;;;;;4.40;2.93;;;2.70;99.90;;;;;;4985026;28;20440;-66
2024/01/17 11:43:33;;;;;;;9.07;4.40;;;2.70;99.90;;;;;;4986956;28;20442;-66
2024/01/17 11:46:01;;;;;;;7.27;3.97;;;2.60;99.90;;;;;;4978008;28;20521;-67
2024/01/17 11:48:29;;;;;;;6.10;3.73;;;2.70;99.90;;;;;;4981871;28;20420;-67
2024/01/17 11:51:00;;;;;;;7.17;4.40;;;2.80;99.90;;;;;;4981707;28;20449;-67
2024/01/17 11:53:28;;;;;;;5.73;2.80;;;2.90;99.90;;;;;;4982531;28;21066;-66
2024/01/17 11:55:57;;;;;;;4.60;3.83;;;3.00;99.90;;;;;;4982621;28;20463;-67
2024/01/17 11:58:40;;;;;;;4.67;4.23;;;2.90;99.90;;;;;;4980149;28;20566;-66
2024/01/17 12:01:07;;;;;;;3.87;2.60;;;2.90;99.90;;;;;;4983696;28;20469;-66
2024/01/17 12:03:34;;;;;;;3.57;3.27;;;2.80;99.90;;;;;;4979783;28;20423;-66
2024/01/17 12:06:02;;;;;;;4.20;3.67;;;2.80;99.90;;;;;;4986929;28;20569;-66
2024/01/17 12:08:29;;;;;;;7.90;4.50;;;2.80;99.90;;;;;;4981982;28;20710;-66
2024/01/17 12:10:56;;;;;;;7.27;5.07;;;2.80;99.90;;;;;;4985569;28;20835;-66
2024/01/17 12:13:23;;;;;;;8.00;3.27;;;2.90;99.90;;;;;;4982392;28;20429;-66
2024/01/17 12:15:54;;;;;;;6.60;4.00;;;2.90;99.90;;;;;;4985080;28;20505;-66
2024/01/17 12:18:22;;;;;;;6.50;3.73;;;2.70;99.90;;;;;;4987058;28;21085;-67
2024/01/17 12:20:49;;;;;;;4.57;3.50;;;2.60;99.90;;;;;;4986628;28;20678;-67
2024/01/17 12:23:18;;;;;;;5.33;3.80;;;2.50;99.90;;;;;;4984300;28;20485;-67
2024/01/17 12:25:44;;;;;;;4.87;3.20;;;2.60;99.90;;;;;;4982270;28;20558;-67
2024/01/17 12:28:17;;;;;;;21.37;3.53;;;2.60;99.90;;;;;;4983041;28;20409;-67
2024/01/17 12:30:55;;;;;;;5.20;3.27;;;2.60;99.90;;;;;;4984053;28;20926;-67
2024/01/17 12:33:23;;;;;;;6.23;4.00;;;2.70;99.90;;;;;;4980636;28;20420;-65
2024/01/17 12:35:50;;;;;;;8.53;4.93;;;2.70;99.90;;;;;;4976756;28;20998;-67
2024/01/17 12:38:18;;;;;;;6.20;2.90;;;2.80;99.90;;;;;;4978068;28;20436;-67
2024/01/17 12:40:44;;;;;;;5.50;3.90;;;2.60;99.90;;;;;;4986091;28;20436;-67
2024/01/17 12:43:12;;;;;;;5.50;3.67;;;2.40;99.90;;;;;;4987101;28;20425;-67
2024/01/17 12:45:39;;;;;;;5.27;4.37;;;2.30;99.90;;;;;;4982176;28;20561;-67
2024/01/17 12:48:11;;;;;;;4.73;3.57;;;2.30;99.90;;;;;;4979187;28;20474;-67
2024/01/17 12:50:42;;;;;;;7.80;4.60;;;2.40;99.90;;;;;;4983549;28;20483;-67